Time;durP1;ratioP1;P1;durP2;ratioP2;P2;SDS_P1;SDS_P2;PMS_P1;PMS_P2;Temp;Humidity;BMP_temperature;BMP_pressure;BME280_temperature;BME280_humidity;BME280_pressure;Samples;Min_cycle;Max_cycle;Signal;HPM_P1;HPM_P2
2021/05/11 00:01:30;;;;;;;5.23;2.03;;;15.10;99.90;;;;;;5085170;28;20251;-71
2021/05/11 00:03:56;;;;;;;7.60;1.80;;;15.20;99.90;;;;;;5081235;28;20186;-71
2021/05/11 00:06:23;;;;;;;6.83;2.10;;;15.20;99.90;;;;;;5077977;28;20217;-70
2021/05/11 00:08:49;;;;;;;7.00;2.20;;;15.20;99.90;;;;;;5083601;28;20194;-70
2021/05/11 00:11:15;;;;;;;6.00;2.03;;;15.30;99.90;;;;;;5084030;28;20263;-71
2021/05/11 00:13:41;;;;;;;9.73;2.57;;;15.40;99.90;;;;;;5081390;28;20229;-71
2021/05/11 00:16:08;;;;;;;5.97;1.93;;;15.40;99.90;;;;;;5079720;28;20210;-70
2021/05/11 00:18:35;;;;;;;7.37;2.00;;;15.20;99.90;;;;;;5072897;28;20276;-71
2021/05/11 00:21:01;;;;;;;11.63;2.47;;;15.20;99.90;;;;;;5064742;28;20194;-71
2021/05/11 00:23:27;;;;;;;4.53;1.80;;;15.20;99.90;;;;;;5062638;28;20193;-70
2021/05/11 00:25:55;;;;;;;6.33;2.50;;;15.20;99.90;;;;;;5083801;28;20190;-70
2021/05/11 00:28:21;;;;;;;7.67;2.33;;;15.20;99.90;;;;;;5082394;28;20224;-71
2021/05/11 00:30:48;;;;;;;12.23;2.20;;;15.20;99.90;;;;;;5077115;28;20186;-70
2021/05/11 00:33:14;;;;;;;6.43;1.80;;;15.20;99.90;;;;;;5081368;28;20202;-71
2021/05/11 00:35:40;;;;;;;6.43;2.10;;;15.20;99.90;;;;;;5083521;28;20209;-69
2021/05/11 00:38:06;;;;;;;7.27;1.90;;;15.20;99.90;;;;;;5081138;28;20737;-69
2021/05/11 00:40:33;;;;;;;9.07;2.58;;;15.20;99.90;;;;;;5080971;28;20921;-71
2021/05/11 00:42:59;;;;;;;7.17;2.20;;;15.20;99.90;;;;;;5065299;28;20183;-72
2021/05/11 00:45:29;;;;;;;7.87;1.83;;;15.10;99.90;;;;;;5082554;28;20223;-69
2021/05/11 00:47:56;;;;;;;5.60;1.93;;;15.10;99.90;;;;;;5075834;28;20243;-71
2021/05/11 00:50:26;;;;;;;7.90;2.17;;;15.20;99.90;;;;;;5077900;28;20663;-71
2021/05/11 00:52:53;;;;;;;6.37;2.43;;;15.30;99.90;;;;;;5081348;28;20190;-69
2021/05/11 00:55:19;;;;;;;5.10;2.10;;;15.40;99.90;;;;;;5066353;28;20198;-71
2021/05/11 00:57:46;;;;;;;7.90;2.30;;;15.50;99.90;;;;;;5082425;28;20254;-72
2021/05/11 01:00:13;;;;;;;7.97;2.10;;;15.50;99.90;;;;;;5080307;28;20174;-70
2021/05/11 01:02:41;;;;;;;8.93;1.80;;;15.60;99.90;;;;;;5064923;28;20202;-70
2021/05/11 01:05:08;;;;;;;9.33;2.07;;;15.60;99.90;;;;;;5081073;28;20187;-70
2021/05/11 01:07:38;;;;;;;8.27;2.00;;;15.60;99.90;;;;;;5076155;28;20221;-71
2021/05/11 01:10:06;;;;;;;6.50;1.80;;;15.50;99.90;;;;;;5081090;28;20294;-70
2021/05/11 01:12:32;;;;;;;4.87;2.13;;;15.50;99.90;;;;;;5080426;28;20380;-70
2021/05/11 01:14:59;;;;;;;4.27;1.80;;;15.40;99.90;;;;;;5067907;28;20182;-71
2021/05/11 01:17:32;;;;;;;12.53;2.50;;;15.30;99.90;;;;;;5081743;28;20293;-70
2021/05/11 01:20:05;;;;;;;12.20;2.00;;;15.40;99.90;;;;;;5077911;28;20193;-70
2021/05/11 01:46:32;;;;;;;7.63;2.17;;;15.20;99.90;;;;;;5082130;28;20196;-72
2021/05/11 01:49:13;;;;;;;7.57;1.90;;;15.20;99.90;;;;;;5081459;28;20265;-71
2021/05/11 01:52:04;;;;;;;9.70;2.07;;;15.30;99.90;;;;;;5077937;28;20190;-72
2021/05/11 01:54:51;;;;;;;8.07;1.80;;;15.20;99.90;;;;;;5082425;28;20519;-69
2021/05/11 02:24:37;;;;;;;4.57;1.50;;;15.20;99.90;;;;;;5083251;28;20186;-71
2021/05/11 02:27:03;;;;;;;6.13;1.73;;;15.20;99.90;;;;;;5084013;28;20183;-70
2021/05/11 02:29:32;;;;;;;5.50;1.80;;;15.20;99.90;;;;;;5083120;28;20208;-71
2021/05/11 02:32:08;;;;;;;4.97;1.60;;;15.10;99.90;;;;;;5079083;28;20228;-71
2021/05/11 02:34:34;;;;;;;4.63;1.80;;;15.40;99.90;;;;;;5082887;28;20729;-71
2021/05/11 02:37:00;;;;;;;11.67;2.20;;;15.50;99.90;;;;;;5067107;28;20202;-71
2021/05/11 02:39:27;;;;;;;6.20;2.10;;;15.60;99.90;;;;;;5081399;28;20197;-71
2021/05/11 02:41:53;;;;;;;7.37;1.97;;;15.70;99.90;;;;;;5085085;28;20351;-70
2021/05/11 02:44:20;;;;;;;8.33;1.90;;;15.70;99.90;;;;;;5085547;28;20178;-71
2021/05/11 02:46:47;;;;;;;8.80;1.97;;;15.70;99.90;;;;;;5083079;28;20255;-71
2021/05/11 02:49:13;;;;;;;5.60;1.70;;;15.90;99.90;;;;;;5082251;28;20191;-71
2021/05/11 02:51:41;;;;;;;8.40;1.87;;;16.00;99.90;;;;;;5073482;28;20198;-69
2021/05/11 02:54:08;;;;;;;7.00;1.80;;;16.10;99.90;;;;;;5084939;28;20932;-71
2021/05/11 02:56:34;;;;;;;5.70;1.80;;;16.30;99.90;;;;;;5084050;28;20266;-70
2021/05/11 02:59:03;;;;;;;6.73;1.90;;;16.50;99.90;;;;;;5081188;28;20182;-71
2021/05/11 03:01:30;;;;;;;6.57;1.90;;;16.70;99.90;;;;;;5082474;28;20239;-71
2021/05/11 03:03:56;;;;;;;6.70;1.90;;;16.90;99.90;;;;;;5062909;28;20265;-71
2021/05/11 03:06:22;;;;;;;5.50;1.83;;;17.00;99.90;;;;;;5095574;27;20210;-72
2021/05/11 03:08:48;;;;;;;12.13;1.70;;;17.00;99.90;;;;;;5081786;28;20195;-70
2021/05/11 03:11:15;;;;;;;4.87;1.70;;;17.10;99.90;;;;;;5082828;28;20194;-70
2021/05/11 03:13:41;;;;;;;9.07;1.83;;;17.20;99.90;;;;;;5080733;28;20198;-72
2021/05/11 03:16:07;;;;;;;9.33;1.90;;;17.20;99.90;;;;;;5063753;28;20204;-72
2021/05/11 03:18:37;;;;;;;7.70;2.47;;;17.10;99.90;;;;;;5081189;28;20198;-71
2021/05/11 03:21:03;;;;;;;6.07;2.00;;;17.00;99.90;;;;;;5079331;28;20181;-69
2021/05/11 03:23:30;;;;;;;5.37;1.90;;;16.90;99.90;;;;;;5073005;28;20216;-71
2021/05/11 03:25:56;;;;;;;4.60;1.93;;;16.80;99.90;;;;;;5078829;28;20232;-71
2021/05/11 03:28:22;;;;;;;7.57;2.30;;;16.70;99.90;;;;;;5060926;28;20245;-72
2021/05/11 03:30:49;;;;;;;9.90;1.90;;;16.70;99.90;;;;;;5063524;28;20182;-69
2021/05/11 03:33:15;;;;;;;12.67;2.07;;;16.90;99.90;;;;;;5079957;28;20190;-73
2021/05/11 03:35:41;;;;;;;8.63;2.10;;;16.90;99.90;;;;;;5079820;28;20206;-68
2021/05/11 03:38:09;;;;;;;6.87;2.33;;;16.90;99.90;;;;;;5080464;28;20193;-69
2021/05/11 03:40:36;;;;;;;10.63;2.27;;;17.00;99.90;;;;;;5081915;28;20185;-70
2021/05/11 03:43:07;;;;;;;4.40;2.07;;;17.10;99.90;;;;;;5083124;28;20227;-70
2021/05/11 03:45:37;;;;;;;11.13;2.50;;;17.00;99.90;;;;;;5065282;28;20923;-70
2021/05/11 03:48:04;;;;;;;5.97;2.00;;;17.10;99.90;;;;;;5066676;28;20189;-69
2021/05/11 03:50:31;;;;;;;8.90;2.13;;;17.10;99.90;;;;;;5081736;28;20190;-70
2021/05/11 03:52:58;;;;;;;8.20;1.83;;;17.10;99.90;;;;;;5077705;28;20269;-68
2021/05/11 03:55:24;;;;;;;7.97;2.33;;;17.00;99.90;;;;;;5076074;28;20213;-70
2021/05/11 03:57:50;;;;;;;7.70;2.00;;;17.00;99.90;;;;;;5076582;28;20194;-71
2021/05/11 04:00:17;;;;;;;10.60;2.00;;;16.90;99.90;;;;;;5080000;28;20186;-69
2021/05/11 04:02:43;;;;;;;14.47;2.80;;;16.70;99.90;;;;;;5061008;28;20252;-71
2021/05/11 04:05:13;;;;;;;7.07;2.10;;;16.50;99.90;;;;;;5082293;28;20182;-68
2021/05/11 04:07:41;;;;;;;10.90;2.70;;;16.40;99.90;;;;;;5078844;28;20197;-72
2021/05/11 04:10:31;;;;;;;6.13;2.30;;;16.30;99.90;;;;;;5065434;28;20265;-71
2021/05/11 04:18:36;;;;;;;11.40;2.00;;;16.40;99.90;;;;;;5081004;28;20221;-68
2021/05/11 04:21:02;;;;;;;10.00;2.37;;;16.50;99.90;;;;;;5081234;28;20206;-71
2021/05/11 04:23:28;;;;;;;7.43;2.43;;;16.60;99.90;;;;;;5097821;28;20190;-71
2021/05/11 04:25:54;;;;;;;6.80;1.93;;;16.60;99.90;;;;;;5088282;28;20223;-72
2021/05/11 04:28:26;;;;;;;10.07;2.50;;;16.60;99.90;;;;;;5059754;28;20285;-70
2021/05/11 04:30:53;;;;;;;5.60;2.37;;;16.70;99.90;;;;;;5081280;28;20269;-72
2021/05/11 04:33:20;;;;;;;10.97;2.10;;;16.80;99.90;;;;;;5064677;28;20182;-71
2021/05/11 04:35:46;;;;;;;5.90;2.40;;;16.90;99.90;;;;;;5083213;28;20674;-71
2021/05/11 04:38:12;;;;;;;4.10;2.10;;;17.00;99.90;;;;;;5066903;28;20739;-72
2021/05/11 04:40:38;;;;;;;6.27;2.40;;;17.10;99.90;;;;;;5067600;28;20240;-72
2021/05/11 04:43:05;;;;;;;8.80;2.00;;;17.20;99.90;;;;;;5081558;28;20178;-72
2021/05/11 04:45:34;;;;;;;7.77;2.10;;;17.30;99.90;;;;;;5084077;28;20182;-68
2021/05/11 04:48:01;;;;;;;6.53;2.40;;;17.40;99.90;;;;;;5080763;28;20606;-70
2021/05/11 04:50:28;;;;;;;7.80;2.10;;;17.50;99.90;;;;;;5098946;28;20197;-70
2021/05/11 04:52:57;;;;;;;4.57;1.83;;;17.60;99.90;;;;;;5087829;28;20186;-69
2021/05/11 04:55:25;;;;;;;8.97;1.87;;;17.70;99.90;;;;;;5068566;28;20264;-70
2021/05/11 04:57:51;;;;;;;8.67;2.17;;;17.90;99.90;;;;;;5080766;28;20305;-70
2021/05/11 05:00:18;;;;;;;7.60;1.67;;;18.00;99.90;;;;;;5088757;28;20177;-69
2021/05/11 05:02:46;;;;;;;7.30;1.90;;;18.00;99.90;;;;;;5080218;28;20182;-69
2021/05/11 05:05:14;;;;;;;4.60;2.27;;;18.00;99.90;;;;;;5070242;28;20243;-69
2021/05/11 05:07:41;;;;;;;6.60;1.80;;;18.20;99.90;;;;;;5083625;28;20205;-68
2021/05/11 05:10:11;;;;;;;9.00;1.97;;;18.40;99.90;;;;;;5089266;28;20238;-69
2021/05/11 05:12:38;;;;;;;6.20;2.03;;;18.50;99.90;;;;;;5081944;28;20185;-69
2021/05/11 05:15:05;;;;;;;7.33;1.90;;;18.50;99.90;;;;;;5086209;28;20213;-69
2021/05/11 05:17:32;;;;;;;7.60;2.00;;;18.70;99.90;;;;;;5088523;28;20194;-70
2021/05/11 05:19:59;;;;;;;14.03;2.43;;;18.70;99.90;;;;;;5070310;28;20722;-70
2021/05/11 05:22:25;;;;;;;9.77;2.23;;;18.80;99.90;;;;;;5064544;28;20182;-69
2021/05/11 05:24:55;;;;;;;7.77;2.00;;;19.00;99.90;;;;;;5070526;28;20182;-69
2021/05/11 05:27:39;;;;;;;7.90;2.10;;;19.10;99.90;;;;;;5074523;28;21413;-68
2021/05/11 05:30:07;;;;;;;7.40;2.00;;;19.20;99.90;;;;;;5067256;28;20644;-70
2021/05/11 05:32:33;;;;;;;7.77;2.33;;;19.30;99.90;;;;;;5084462;28;20792;-69
2021/05/11 05:34:59;;;;;;;13.53;2.47;;;19.40;99.90;;;;;;5086413;28;20634;-69
2021/05/11 05:37:25;;;;;;;7.13;2.07;;;19.50;99.90;;;;;;5086403;28;20528;-69
2021/05/11 05:39:56;;;;;;;7.17;2.00;;;19.60;99.90;;;;;;5088617;28;20185;-68
2021/05/11 05:42:23;;;;;;;13.63;2.30;;;19.60;99.90;;;;;;5087466;28;20240;-69
2021/05/11 05:44:49;;;;;;;9.17;1.80;;;19.70;99.90;;;;;;5087247;28;20288;-69
2021/05/11 05:47:17;;;;;;;10.53;2.40;;;19.80;99.90;;;;;;5083642;28;20205;-69
2021/05/11 05:49:49;;;;;;;10.00;2.30;;;19.90;99.90;;;;;;5085058;28;20190;-69
2021/05/11 05:52:23;;;;;;;10.70;2.47;;;19.90;99.90;;;;;;5083692;28;20292;-69
2021/05/11 05:54:49;;;;;;;3.37;1.87;;;19.80;99.90;;;;;;5080571;28;20210;-68
2021/05/11 05:57:16;;;;;;;6.97;2.23;;;20.10;99.90;;;;;;5078914;28;20304;-70
2021/05/11 05:59:43;;;;;;;6.33;2.07;;;20.10;99.90;;;;;;5077536;28;20186;-70
2021/05/11 06:02:16;;;;;;;11.77;2.03;;;20.30;99.90;;;;;;5082451;28;20236;-71
2021/05/11 06:04:43;;;;;;;7.90;2.20;;;20.30;99.90;;;;;;5078105;28;20281;-69
2021/05/11 06:07:12;;;;;;;9.37;2.13;;;20.40;99.90;;;;;;5080742;28;20670;-70
2021/05/11 06:09:38;;;;;;;9.10;2.13;;;20.50;99.90;;;;;;5085482;28;20736;-69
2021/05/11 06:12:11;;;;;;;10.13;2.30;;;20.60;99.90;;;;;;5085325;28;20723;-70
2021/05/11 06:19:44;;;;;;;7.40;2.43;;;20.90;99.90;;;;;;5078777;28;20235;-69
2021/05/11 06:22:12;;;;;;;12.53;2.13;;;21.00;99.90;;;;;;5084435;28;20186;-69
2021/05/11 06:24:40;;;;;;;15.40;1.93;;;21.10;99.90;;;;;;5085963;28;20269;-69
2021/05/11 06:27:07;;;;;;;6.53;2.10;;;21.10;99.90;;;;;;5086051;28;20316;-70
2021/05/11 06:29:40;;;;;;;10.93;2.20;;;21.10;99.90;;;;;;5071582;28;20285;-69
2021/05/11 06:32:08;;;;;;;16.20;2.60;;;21.20;99.90;;;;;;5086154;28;20190;-71
2021/05/11 06:34:37;;;;;;;10.97;2.40;;;21.30;99.90;;;;;;5084231;28;20198;-70
2021/05/11 06:37:03;;;;;;;11.80;2.60;;;21.40;99.90;;;;;;5082787;28;20256;-68
2021/05/11 06:39:30;;;;;;;7.10;2.27;;;21.50;99.90;;;;;;5083026;28;20281;-69
2021/05/11 06:42:12;;;;;;;12.90;2.30;;;21.60;99.90;;;;;;5081227;28;20181;-68
2021/05/11 06:50:39;;;;;;;6.93;2.00;;;21.70;99.90;;;;;;5080271;28;20185;-71
2021/05/11 06:53:14;;;;;;;8.33;2.00;;;21.80;99.90;;;;;;5084969;28;20178;-70
2021/05/11 06:55:46;;;;;;;7.07;2.30;;;21.80;99.90;;;;;;5083679;28;20220;-69
2021/05/11 06:58:13;;;;;;;14.13;2.50;;;21.90;99.90;;;;;;5069499;28;20190;-70
2021/05/11 07:00:43;;;;;;;8.83;2.27;;;22.00;99.90;;;;;;5066055;28;20279;-69
2021/05/11 07:03:10;;;;;;;9.63;2.43;;;22.00;99.90;;;;;;5081553;28;20178;-70
2021/05/11 07:05:37;;;;;;;12.97;2.40;;;22.10;99.90;;;;;;5081808;28;20194;-70
2021/05/11 07:10:34;;;;;;;9.30;2.40;;;22.30;99.90;;;;;;5083329;28;20193;-69
2021/05/11 07:13:10;;;;;;;8.70;2.03;;;22.30;99.90;;;;;;5083621;28;20312;-68
2021/05/11 07:15:42;;;;;;;20.67;1.97;;;22.40;99.90;;;;;;5076607;28;20329;-70
2021/05/11 07:18:21;;;;;;;9.90;2.00;;;22.50;99.90;;;;;;5081972;28;20224;-70
2021/05/11 07:20:55;;;;;;;7.03;1.93;;;22.50;99.90;;;;;;5080091;28;20543;-69
2021/05/11 07:23:21;;;;;;;9.43;2.27;;;22.60;99.90;;;;;;5083585;28;20729;-70
2021/05/11 07:31:16;;;;;;;15.87;2.33;;;22.80;99.90;;;;;;5078337;28;20210;-69
2021/05/11 07:33:46;;;;;;;8.37;2.20;;;22.80;99.90;;;;;;5066801;28;20187;-68
2021/05/11 07:36:13;;;;;;;9.77;2.33;;;23.00;99.90;;;;;;5078789;28;20206;-70
2021/05/11 07:38:40;;;;;;;8.60;2.40;;;23.10;99.90;;;;;;5082625;28;20262;-69
2021/05/11 07:41:09;;;;;;;8.50;2.17;;;23.10;99.90;;;;;;5083978;28;20204;-70
2021/05/11 07:43:38;;;;;;;9.20;2.40;;;23.30;99.90;;;;;;5083894;28;20258;-70
2021/05/11 08:05:05;;;;;;;7.63;2.27;;;23.80;99.90;;;;;;5080872;28;20174;-71
2021/05/11 08:15:49;;;;;;;9.60;2.23;;;24.20;99.90;;;;;;5077145;28;20261;-72
2021/05/11 08:18:32;;;;;;;9.00;2.33;;;24.40;99.90;;;;;;5064343;28;20189;-72
2021/05/11 08:29:15;;;;;;;9.93;2.45;;;24.60;99.90;;;;;;5090094;28;20186;-71
2021/05/11 08:31:43;;;;;;;12.60;2.63;;;24.70;99.90;;;;;;5086066;28;20190;-71
2021/05/11 08:34:09;;;;;;;12.20;2.50;;;24.80;99.90;;;;;;5084250;28;20190;-71
2021/05/11 08:36:36;;;;;;;10.00;2.07;;;24.70;99.90;;;;;;5084134;28;20542;-71
2021/05/11 08:39:04;;;;;;;7.73;2.40;;;24.90;99.90;;;;;;5086740;28;20190;-71
2021/05/11 08:41:30;;;;;;;8.73;2.30;;;24.90;99.90;;;;;;5084378;28;20190;-72
2021/05/11 08:43:57;;;;;;;8.03;2.50;;;24.90;99.90;;;;;;5079428;28;20190;-71
2021/05/11 08:46:23;;;;;;;12.40;2.53;;;25.10;99.90;;;;;;5084013;28;20304;-72
2021/05/11 08:48:51;;;;;;;21.13;2.47;;;25.10;99.90;;;;;;5086319;28;20193;-71
2021/05/11 08:51:24;;;;;;;16.10;2.90;;;25.10;99.90;;;;;;5086448;28;20269;-71
2021/05/11 09:56:59;;;;;;;10.27;2.08;;;26.60;99.90;;;;;;5084676;28;20559;-70
2021/05/11 10:42:06;;;;;;;9.02;2.20;;;27.50;99.40;;;;;;5080003;28;20522;-71
2021/05/11 10:48:29;;;;;;;8.85;2.72;;;27.50;99.60;;;;;;5031238;28;20190;-70
2021/05/11 10:51:02;;;;;;;9.52;2.50;;;27.50;99.20;;;;;;5077656;28;20186;-70
2021/05/11 10:53:47;;;;;;;8.30;2.08;;;27.40;98.80;;;;;;5085114;28;20265;-70
2021/05/11 11:01:59;;;;;;;11.23;2.58;;;27.20;99.50;;;;;;5083274;28;20209;-71
2021/05/11 11:04:32;;;;;;;13.00;2.67;;;27.30;99.80;;;;;;5082950;28;20204;-69
2021/05/11 11:07:01;;;;;;;15.98;2.83;;;27.30;99.50;;;;;;5079059;28;20217;-70
2021/05/11 11:09:31;;;;;;;18.05;2.60;;;27.30;99.60;;;;;;5082504;28;20211;-69
2021/05/11 11:12:01;;;;;;;11.88;2.60;;;27.10;99.60;;;;;;5074391;28;20331;-69
2021/05/11 11:14:39;;;;;;;12.38;2.50;;;27.10;99.60;;;;;;5062705;28;20219;-69
2021/05/11 11:17:11;;;;;;;16.95;2.60;;;27.10;99.90;;;;;;5077375;28;20280;-69
2021/05/11 11:19:38;;;;;;;10.00;2.33;;;27.10;99.90;;;;;;5068452;28;20201;-69
2021/05/11 11:24:58;;;;;;;8.32;2.60;;;26.90;99.60;;;;;;5091508;28;20218;-68
2021/05/11 11:27:31;;;;;;;10.68;2.38;;;26.90;99.20;;;;;;5079716;28;20186;-69
2021/05/11 11:30:09;;;;;;;12.15;2.42;;;26.80;99.00;;;;;;5093217;28;20190;-69
2021/05/11 11:32:36;;;;;;;7.90;2.60;;;26.90;99.20;;;;;;5078217;28;20209;-68
2021/05/11 11:35:06;;;;;;;10.18;2.83;;;26.80;99.10;;;;;;5079456;28;20275;-68
2021/05/11 11:37:33;;;;;;;15.13;2.40;;;26.70;99.40;;;;;;5080610;28;20242;-69
2021/05/11 11:40:05;;;;;;;9.63;2.20;;;26.70;99.00;;;;;;5076700;28;20695;-69
2021/05/11 11:42:41;;;;;;;11.30;2.40;;;26.80;99.00;;;;;;5077034;28;20196;-69
2021/05/11 11:45:21;;;;;;;7.93;2.25;;;26.80;98.70;;;;;;5081652;28;20190;-68
2021/05/11 11:48:00;;;;;;;12.32;2.38;;;26.80;98.30;;;;;;5053514;28;20202;-69
2021/05/11 11:50:31;;;;;;;8.52;2.17;;;26.80;98.60;;;;;;5059226;28;20810;-69
2021/05/11 11:53:20;;;;;;;11.40;2.13;;;26.70;98.20;;;;;;5075570;28;20658;-70
2021/05/11 11:56:25;;;;;;;9.02;2.10;;;26.70;98.80;;;;;;5064104;28;20694;-68
2021/05/11 11:59:15;;;;;;;10.63;2.35;;;26.70;98.80;;;;;;5072347;28;20191;-69
2021/05/11 12:02:18;;;;;;;9.80;2.55;;;26.80;98.70;;;;;;5079986;28;20254;-68
2021/05/11 12:04:47;;;;;;;11.07;2.50;;;26.80;99.00;;;;;;5078417;28;20309;-68
2021/05/11 12:07:24;;;;;;;11.57;2.30;;;26.80;99.40;;;;;;5077900;28;20306;-68
2021/05/11 12:09:53;;;;;;;8.50;2.30;;;26.70;99.50;;;;;;5075619;28;20186;-69
2021/05/11 12:12:19;;;;;;;9.27;2.42;;;26.70;99.40;;;;;;5089321;28;20242;-69
2021/05/11 12:14:45;;;;;;;7.25;2.55;;;26.80;99.90;;;;;;5077419;28;20186;-69
2021/05/11 12:17:13;;;;;;;11.00;2.80;;;26.70;99.80;;;;;;5061505;28;20313;-69
2021/05/11 12:19:44;;;;;;;7.70;2.58;;;26.70;99.60;;;;;;5066738;28;20186;-68
2021/05/11 12:22:10;;;;;;;10.98;2.63;;;26.80;99.50;;;;;;5074499;28;20206;-70
2021/05/11 12:24:42;;;;;;;12.43;2.70;;;26.90;99.10;;;;;;5075381;28;20190;-70
2021/05/11 12:27:22;;;;;;;9.88;2.78;;;26.90;99.50;;;;;;5077057;28;20195;-68
2021/05/11 12:30:07;;;;;;;11.70;2.72;;;26.80;99.50;;;;;;5074461;28;20194;-68
2021/05/11 12:32:36;;;;;;;11.50;2.35;;;26.90;99.40;;;;;;5066174;28;20197;-68
2021/05/11 12:35:11;;;;;;;11.18;2.70;;;26.70;99.80;;;;;;5074821;28;20679;-68
2021/05/11 12:37:50;;;;;;;7.70;2.22;;;26.80;99.90;;;;;;5076412;28;20240;-69
2021/05/11 12:40:29;;;;;;;10.55;2.40;;;26.80;99.90;;;;;;5078990;28;20235;-69
2021/05/11 12:43:02;;;;;;;12.75;2.47;;;26.70;99.90;;;;;;5080499;28;20205;-69
2021/05/11 12:45:35;;;;;;;9.20;2.30;;;26.70;99.90;;;;;;5080517;28;20248;-69
2021/05/11 12:48:05;;;;;;;10.60;2.47;;;26.80;99.90;;;;;;5080410;28;20285;-69
2021/05/11 12:50:42;;;;;;;8.60;2.10;;;26.70;99.90;;;;;;5069483;28;20218;-69
2021/05/11 12:53:37;;;;;;;8.90;2.45;;;26.50;99.90;;;;;;5074469;28;20634;-68
2021/05/11 12:56:18;;;;;;;11.20;2.53;;;26.70;99.90;;;;;;5076567;28;20316;-69
2021/05/11 13:26:38;;;;;;;8.35;2.22;;;26.30;99.90;;;;;;5082334;28;20182;-70
2021/05/11 13:29:19;;;;;;;5.32;1.73;;;26.20;99.90;;;;;;5083607;28;20186;-72
2021/05/11 13:32:00;;;;;;;9.02;2.15;;;26.30;99.90;;;;;;5071126;28;20182;-72
2021/05/11 13:34:26;;;;;;;3.97;1.90;;;26.20;99.90;;;;;;5082913;28;20272;-73
2021/05/11 13:36:52;;;;;;;6.32;1.95;;;26.20;99.90;;;;;;5084075;28;20213;-72
2021/05/11 13:39:19;;;;;;;8.60;2.08;;;26.20;99.90;;;;;;5082705;28;20178;-72
2021/05/11 13:41:46;;;;;;;6.25;2.00;;;26.10;99.90;;;;;;5067293;28;20209;-71
2021/05/11 13:44:13;;;;;;;5.93;2.22;;;25.90;99.90;;;;;;5082611;28;20186;-68
2021/05/11 13:46:39;;;;;;;10.43;2.30;;;25.90;99.90;;;;;;5066797;28;20198;-70
2021/05/11 13:49:05;;;;;;;6.85;2.22;;;25.90;99.90;;;;;;5078925;28;20606;-73
2021/05/11 13:51:32;;;;;;;5.93;2.10;;;25.90;99.90;;;;;;5075123;28;20190;-72
2021/05/11 13:54:04;;;;;;;7.57;2.03;;;25.90;99.90;;;;;;5077145;28;20708;-69
2021/05/11 13:56:39;;;;;;;8.20;2.10;;;25.90;99.90;;;;;;5082180;28;20210;-72
2021/05/11 14:04:19;;;;;;;6.82;2.15;;;25.80;99.90;;;;;;5079431;28;20185;-72
2021/05/11 14:06:46;;;;;;;9.05;2.40;;;25.90;99.90;;;;;;5065692;28;21320;-72
2021/05/11 14:09:14;;;;;;;8.88;2.20;;;25.90;99.90;;;;;;5065030;28;20332;-74
2021/05/11 14:11:41;;;;;;;9.48;2.00;;;25.80;99.90;;;;;;5083020;28;20189;-71
2021/05/11 14:14:09;;;;;;;5.57;1.75;;;25.80;99.90;;;;;;5077870;28;20292;-72
2021/05/11 14:16:36;;;;;;;47.10;4.68;;;25.90;99.90;;;;;;5082212;28;20294;-71
2021/05/11 14:19:03;;;;;;;395.73;24.63;;;25.90;99.90;;;;;;5099698;28;20190;-74
2021/05/11 14:21:30;;;;;;;7.15;2.28;;;25.90;99.90;;;;;;5081521;28;20183;-73
2021/05/11 14:23:56;;;;;;;15.52;2.10;;;26.00;99.90;;;;;;5071135;28;20195;-71
2021/05/11 14:26:27;;;;;;;12.45;2.15;;;25.90;99.90;;;;;;5084104;28;20182;-71
2021/05/11 14:28:56;;;;;;;7.70;1.92;;;25.80;99.90;;;;;;5078831;28;20190;-72
2021/05/11 14:31:25;;;;;;;10.85;1.75;;;25.60;99.90;;;;;;5065076;28;20214;-71
2021/05/11 14:33:52;;;;;;;10.85;1.88;;;25.60;99.90;;;;;;5067828;28;20190;-74
2021/05/11 14:36:19;;;;;;;6.88;2.05;;;25.50;99.90;;;;;;5079953;28;20626;-72
2021/05/11 14:38:46;;;;;;;5.97;1.93;;;25.50;99.90;;;;;;5065313;28;20293;-72
2021/05/11 14:41:14;;;;;;;9.00;2.20;;;25.50;99.90;;;;;;5085539;28;20905;-73
2021/05/11 14:43:42;;;;;;;12.77;2.30;;;25.40;99.90;;;;;;5084216;28;20262;-72
2021/05/11 14:46:11;;;;;;;9.23;2.42;;;25.40;99.90;;;;;;5082581;28;20200;-72
2021/05/11 14:48:39;;;;;;;9.93;2.20;;;25.30;99.90;;;;;;5083045;28;20186;-72
2021/05/11 14:51:08;;;;;;;7.88;1.90;;;25.10;99.90;;;;;;5096867;28;20662;-73
2021/05/11 14:53:35;;;;;;;7.93;1.90;;;24.70;99.90;;;;;;5079880;28;20288;-73
2021/05/11 14:56:03;;;;;;;10.65;2.50;;;24.70;99.90;;;;;;5090973;28;20225;-73
2021/05/11 14:58:30;;;;;;;9.50;2.20;;;24.60;99.90;;;;;;5083480;27;20239;-72
2021/05/11 15:00:57;;;;;;;5.78;2.28;;;24.80;99.90;;;;;;5080664;28;20194;-72
2021/05/11 15:03:23;;;;;;;8.32;1.80;;;24.80;99.90;;;;;;5083116;28;20191;-73
2021/05/11 15:05:49;;;;;;;4.32;1.63;;;24.60;99.90;;;;;;5082242;28;20214;-73
2021/05/11 15:08:16;;;;;;;9.85;2.00;;;24.40;99.90;;;;;;5063330;28;20186;-72
2021/05/11 15:10:43;;;;;;;3.03;1.60;;;24.40;99.90;;;;;;5066665;28;20650;-74
2021/05/11 15:13:10;;;;;;;7.97;2.17;;;24.30;99.90;;;;;;5083958;28;20187;-73
2021/05/11 15:15:39;;;;;;;8.43;2.40;;;24.40;99.90;;;;;;5079122;28;20231;-72
2021/05/11 15:18:06;;;;;;;9.68;2.30;;;24.40;99.90;;;;;;5064645;28;20181;-75
2021/05/11 15:20:34;;;;;;;4.57;1.93;;;24.10;99.90;;;;;;5082254;28;20269;-72
2021/05/11 15:23:03;;;;;;;8.57;2.00;;;24.10;99.90;;;;;;5081050;28;20174;-74
2021/05/11 15:25:30;;;;;;;9.95;2.15;;;23.90;99.90;;;;;;5072410;28;20186;-73
2021/05/11 15:27:57;;;;;;;10.00;2.53;;;23.80;99.90;;;;;;5082938;28;20190;-71
2021/05/11 15:30:28;;;;;;;8.80;2.47;;;23.70;99.90;;;;;;5065048;28;20185;-72
2021/05/11 15:32:57;;;;;;;8.73;2.43;;;23.70;99.90;;;;;;5079500;28;20226;-73
2021/05/11 15:35:35;;;;;;;7.13;2.57;;;23.60;99.90;;;;;;5098648;28;20190;-72
2021/05/11 15:38:07;;;;;;;8.67;2.90;;;23.50;99.90;;;;;;5081969;28;20190;-73
2021/05/11 15:40:39;;;;;;;10.57;3.00;;;23.50;99.90;;;;;;5066300;28;20197;-73
2021/05/11 15:43:07;;;;;;;11.77;2.87;;;23.70;99.90;;;;;;5078051;28;20187;-73
2021/05/11 15:45:36;;;;;;;9.20;2.73;;;23.50;99.90;;;;;;5078437;28;20251;-72
2021/05/11 15:48:07;;;;;;;11.43;2.80;;;23.70;99.90;;;;;;5083374;28;20186;-71
2021/05/11 15:50:40;;;;;;;8.77;2.60;;;23.40;99.90;;;;;;5079323;28;20282;-72
2021/05/11 15:53:11;;;;;;;11.50;3.30;;;23.40;99.90;;;;;;5081181;28;20246;-73
2021/05/11 15:55:44;;;;;;;8.80;2.72;;;23.30;99.90;;;;;;5071188;28;20231;-71
2021/05/11 15:58:13;;;;;;;9.43;2.78;;;23.10;99.90;;;;;;5077323;28;20174;-71
2021/05/11 16:00:42;;;;;;;13.20;3.10;;;23.00;99.90;;;;;;5082022;28;20190;-72
2021/05/11 16:03:09;;;;;;;14.50;2.77;;;23.20;99.90;;;;;;5067332;28;20187;-72
2021/05/11 16:05:38;;;;;;;11.73;2.90;;;23.40;99.90;;;;;;5079662;28;20178;-73
2021/05/11 16:08:11;;;;;;;10.80;3.33;;;23.30;99.90;;;;;;5081715;28;20764;-73
2021/05/11 16:10:38;;;;;;;11.50;3.10;;;23.40;99.90;;;;;;5078955;28;20186;-72
2021/05/11 16:13:05;;;;;;;6.30;2.60;;;23.30;99.90;;;;;;5080422;28;20374;-72
2021/05/11 16:15:32;;;;;;;13.40;3.20;;;23.00;99.90;;;;;;5084371;28;20881;-73
2021/05/11 16:18:00;;;;;;;16.30;2.67;;;23.00;99.90;;;;;;5080840;28;20193;-73
2021/05/11 16:20:26;;;;;;;17.17;2.50;;;23.10;99.90;;;;;;5066971;28;20293;-71
2021/05/11 16:22:53;;;;;;;10.13;3.20;;;22.90;99.90;;;;;;5082997;28;20235;-73
2021/05/11 16:25:21;;;;;;;12.80;4.53;;;22.50;99.90;;;;;;5097294;28;20628;-72
2021/05/11 16:27:48;;;;;;;12.47;4.17;;;22.30;99.90;;;;;;5075803;28;20197;-74
2021/05/11 16:30:18;;;;;;;16.10;3.70;;;22.10;99.90;;;;;;5082349;28;20194;-74
2021/05/11 16:32:45;;;;;;;12.40;3.00;;;22.20;99.90;;;;;;5082711;28;20186;-70
2021/05/11 16:35:13;;;;;;;10.27;3.43;;;22.30;99.90;;;;;;5089143;28;20231;-72
2021/05/11 16:37:41;;;;;;;9.97;3.10;;;22.10;99.90;;;;;;5064130;28;20213;-74
2021/05/11 16:40:10;;;;;;;14.37;2.90;;;21.80;99.90;;;;;;5081493;28;20590;-74
2021/05/11 16:42:37;;;;;;;12.83;2.93;;;21.80;99.90;;;;;;5067213;28;20208;-69
2021/05/11 16:45:12;;;;;;;8.70;2.50;;;22.00;99.90;;;;;;5084473;28;20273;-70
2021/05/11 16:47:54;;;;;;;11.20;2.70;;;21.70;99.90;;;;;;5081461;28;20189;-72
2021/05/11 16:50:29;;;;;;;10.60;2.83;;;21.40;99.90;;;;;;5085599;28;20650;-69
2021/05/11 16:52:58;;;;;;;12.27;2.80;;;21.70;99.90;;;;;;5082832;28;20583;-72
2021/05/11 16:55:25;;;;;;;11.83;2.87;;;21.70;99.90;;;;;;5087066;28;20212;-71
2021/05/11 16:57:52;;;;;;;8.90;2.97;;;21.70;99.90;;;;;;5056014;28;20217;-69
2021/05/11 17:00:24;;;;;;;11.57;3.13;;;21.60;99.90;;;;;;5085650;28;20193;-74
2021/05/11 17:02:54;;;;;;;7.50;2.70;;;21.20;99.90;;;;;;5063799;28;20605;-73
2021/05/11 17:05:21;;;;;;;12.63;2.57;;;21.40;99.90;;;;;;5066387;28;20179;-74
2021/05/11 17:07:50;;;;;;;11.23;3.10;;;21.30;99.90;;;;;;5082110;28;20183;-72
2021/05/11 17:10:18;;;;;;;10.97;2.70;;;21.10;99.90;;;;;;5065331;28;20204;-72
2021/05/11 17:12:45;;;;;;;9.60;2.70;;;20.80;99.90;;;;;;5079577;28;20194;-72
2021/05/11 17:15:12;;;;;;;10.20;2.43;;;20.70;99.90;;;;;;5084719;28;20200;-72
2021/05/11 17:17:39;;;;;;;6.90;2.33;;;20.60;99.90;;;;;;5063863;28;20293;-74